Messwerte Jendouba

Temperatur

Temperatur
°C
1553104800 19.00 19.00 9
1553108400 20.00 20.00 10
1553112000 21.00 21.00 10
1553115600 22.00 22.00 10
1553119200 23.00 23.00
1553122800 0.00 0.00
1553126400 1.00 1.00 12
1553130000 2.00 2.00
1553133600 3.00 3.00
1553137200 4.00 4.00
1553140800 5.00 5.00
1553144400 6.00 6.00 9
1553148000 7.00 7.00 9
1553151600 8.00 8.00 9
1553155200 9.00 9.00 9
1553158800 10.00 10.00 10
1553162400 11.00 11.00 10
1553166000 12.00 12.00 10
1553169600 13.00 13.00 11
1553173200 14.00 14.00 10
1553176800 15.00 15.00 10
1553180400 16.00 16.00 11
1553184000 17.00 17.00 10
1553187600 18.00 18.00 11

Aktuellste Messwerte

Wettercharakter
Wetter: wechselnd bewölkt
Temperatur
11 °C
Feuchtigkeit
80 %
Wind
5 km/hWindrichtung: Nordost
Luftdruck
1014 hPa
Messzeit: 21. März 2019, 18.00Datenquelle: METAR

Weitere Messstationen in der Nähe

Messstation Temperatur Entfernung
Tabarka 11 °C 52 km
Annaba 11 °C 96 km
Bizerta - 123 km
Tebessa 6 °C 133 km
Tunis 12 °C 133 km
Kairouan 10 °C 147 km
Akouda 11.1 °C 173 km

Wind

Windrichtung Böen Mittelwind
° km/h km/h
1553104800 19.00 18.00 - 19.00 300° 10
1553108400 20.00 19.00 - 20.00 310° 10
1553112000 21.00 20.00 - 21.00 290° 10
1553115600 22.00 21.00 - 22.00 290° 10
1553119200 23.00 22.00 - 23.00
1553122800 0.00 23.00 - 0.00
1553126400 1.00 0.00 - 1.00 20° 25
1553130000 2.00 1.00 - 2.00
1553133600 3.00 2.00 - 3.00
1553137200 4.00 3.00 - 4.00
1553140800 5.00 4.00 - 5.00
1553144400 6.00 5.00 - 6.00 320° 10
1553148000 7.00 6.00 - 7.00 30° 5
1553151600 8.00 7.00 - 8.00 10° 20
1553155200 9.00 8.00 - 9.00 20° 15
1553158800 10.00 9.00 - 10.00 10° 5
1553162400 11.00 10.00 - 11.00 360° 5
1553166000 12.00 11.00 - 12.00 30° 15
1553169600 13.00 12.00 - 13.00 30° 10
1553173200 14.00 13.00 - 14.00 10° 10
1553176800 15.00 14.00 - 15.00 350° 10
1553180400 16.00 15.00 - 16.00 300° 5
1553184000 17.00 16.00 - 17.00 80° 5
1553187600 18.00 17.00 - 18.00 60° 5

Ihre Wetterstation

Fehlt Ihre Wetterstation auf unserem Portal?

Schreiben Sie an network@meteonews.ch

Klima

Wann ist es am wärmsten? Wann regnet es am wenigsten? Unsere Klimadaten geben Auskunft.